Time;durP1;ratioP1;P1;durP2;ratioP2;P2;SDS_P1;SDS_P2;PMS_P1;PMS_P2;Temp;Humidity;BMP_temperature;BMP_pressure;BME280_temperature;BME280_humidity;BME280_pressure;Samples;Min_cycle;Max_cycle;Signal;HPM_P1;HPM_P2
2021/10/29 00:02:24;;;;;;;28.67;26.40;;;;;;;;;;5072813;28;20850;-91
2021/10/29 00:04:52;;;;;;;30.30;27.80;;;;;;;;;;5074220;28;20439;-92
2021/10/29 00:07:19;;;;;;;30.50;28.03;;;;;;;;;;5073868;28;20408;-91
2021/10/29 00:09:46;;;;;;;30.23;27.73;;;;;;;;;;5074041;28;20504;-91
2021/10/29 00:12:15;;;;;;;29.47;27.07;;;;;;;;;;5073994;28;20762;-92
2021/10/29 00:14:43;;;;;;;29.70;27.27;;;;;;;;;;5073706;28;20450;-92
2021/10/29 00:17:11;;;;;;;29.87;27.40;;;;;;;;;;5072344;28;20526;-92
2021/10/29 00:19:39;;;;;;;32.53;29.93;;;;;;;;;;5073681;28;20494;-92
2021/10/29 00:22:07;;;;;;;30.73;28.23;;;;;;;;;;5073911;28;20445;-91
2021/10/29 00:24:35;;;;;;;31.20;28.50;;;;;;;;;;5073924;28;20439;-92
2021/10/29 00:27:02;;;;;;;32.00;29.33;;;;;;;;;;5073906;28;20441;-92
2021/10/29 00:29:30;;;;;;;31.33;28.53;;;;;;;;;;5073593;28;20412;-92
2021/10/29 00:31:58;;;;;;;31.38;28.77;;;;;;;;;;5072364;28;20424;-92
2021/10/29 00:34:26;;;;;;;31.70;28.63;;;;;;;;;;5072648;28;20691;-92
2021/10/29 00:36:53;;;;;;;30.95;28.20;;;;;;;;;;5073256;28;20237;-92
2021/10/29 00:39:21;;;;;;;32.60;29.67;;;;;;;;;;5073766;28;20215;-92
2021/10/29 00:41:49;;;;;;;30.60;27.95;;;;;;;;;;5073522;28;20441;-92
2021/10/29 00:44:22;;;;;;;31.80;29.23;;;;;;;;;;5073665;28;20194;-90
2021/10/29 00:46:49;;;;;;;33.15;30.13;;;;;;;;;;5073662;28;20191;-92
2021/10/29 00:49:18;;;;;;;28.85;26.60;;;;;;;;;;5073644;28;20286;-91
2021/10/29 00:51:46;;;;;;;31.30;28.80;;;;;;;;;;5073530;28;20694;-92
2021/10/29 00:54:14;;;;;;;31.97;29.07;;;;;;;;;;5073732;28;20768;-91
2021/10/29 00:56:41;;;;;;;32.77;29.67;;;;;;;;;;5073235;28;20441;-92
2021/10/29 00:59:08;;;;;;;31.60;28.80;;;;;;;;;;5071988;28;20513;-92
2021/10/29 01:01:36;;;;;;;33.13;30.20;;;;;;;;;;5073107;28;20456;-92
2021/10/29 01:04:04;;;;;;;30.67;28.27;;;;;;;;;;5073355;28;20461;-91
2021/10/29 01:06:33;;;;;;;33.37;30.07;;;;;;;;;;5073402;28;20442;-90
2021/10/29 01:09:01;;;;;;;31.30;28.70;;;;;;;;;;5072997;28;20472;-92
2021/10/29 01:11:29;;;;;;;32.08;29.00;;;;;;;;;;5073355;28;20507;-91
2021/10/29 01:13:56;;;;;;;32.30;29.50;;;;;;;;;;5073275;28;20212;-92
2021/10/29 01:16:24;;;;;;;33.43;30.40;;;;;;;;;;5072964;28;20234;-91
2021/10/29 01:18:51;;;;;;;31.05;28.45;;;;;;;;;;5072224;28;20528;-91
2021/10/29 01:21:20;;;;;;;32.97;30.03;;;;;;;;;;5073329;28;20209;-92
2021/10/29 01:23:48;;;;;;;32.20;29.40;;;;;;;;;;5072942;28;20427;-92
2021/10/29 01:26:17;;;;;;;33.30;30.27;;;;;;;;;;5076875;28;20877;-92
2021/10/29 01:28:45;;;;;;;33.93;30.87;;;;;;;;;;5076690;28;20418;-91
2021/10/29 01:31:13;;;;;;;33.07;29.87;;;;;;;;;;5076575;28;20436;-91
2021/10/29 01:33:40;;;;;;;32.60;29.70;;;;;;;;;;5076813;28;20443;-92
2021/10/29 01:36:07;;;;;;;33.53;30.15;;;;;;;;;;5076774;28;20423;-92
2021/10/29 01:38:37;;;;;;;32.58;29.67;;;;;;;;;;5076674;28;20241;-91
2021/10/29 01:41:05;;;;;;;32.70;29.70;;;;;;;;;;5076951;28;20195;-91
2021/10/29 01:43:33;;;;;;;32.57;29.70;;;;;;;;;;5076249;28;20202;-92
2021/10/29 01:46:00;;;;;;;32.60;29.53;;;;;;;;;;5076345;28;20438;-92
2021/10/29 01:48:27;;;;;;;31.30;28.23;;;;;;;;;;5076461;28;20457;-92
2021/10/29 01:50:55;;;;;;;31.17;28.27;;;;;;;;;;5076421;28;20461;-92
2021/10/29 01:53:22;;;;;;;33.15;30.05;;;;;;;;;;5076209;28;20206;-92
2021/10/29 01:55:51;;;;;;;33.27;30.07;;;;;;;;;;5075936;28;20202;-92
2021/10/29 01:58:18;;;;;;;31.27;28.47;;;;;;;;;;5076263;28;20476;-91
2021/10/29 02:00:46;;;;;;;30.70;27.97;;;;;;;;;;5076288;28;20491;-92
2021/10/29 02:03:13;;;;;;;31.53;28.93;;;;;;;;;;5076127;28;20432;-92
2021/10/29 02:05:42;;;;;;;31.17;28.27;;;;;;;;;;5076045;28;20799;-91
2021/10/29 02:08:09;;;;;;;31.88;28.80;;;;;;;;;;5076017;28;20431;-92
2021/10/29 02:10:37;;;;;;;32.17;29.48;;;;;;;;;;5075747;28;20731;-92
2021/10/29 02:13:05;;;;;;;31.10;28.40;;;;;;;;;;5075977;28;20274;-92
2021/10/29 02:15:33;;;;;;;31.60;28.70;;;;;;;;;;5076103;28;20413;-92
2021/10/29 02:18:01;;;;;;;33.40;30.30;;;;;;;;;;5074265;28;20488;-92
2021/10/29 02:20:28;;;;;;;31.43;28.73;;;;;;;;;;5075769;28;20488;-92
2021/10/29 02:22:55;;;;;;;29.63;27.43;;;;;;;;;;5075854;28;20465;-92
2021/10/29 02:25:23;;;;;;;32.23;29.40;;;;;;;;;;5075912;28;20490;-92
2021/10/29 02:27:50;;;;;;;31.67;28.97;;;;;;;;;;5075701;28;20801;-92
2021/10/29 02:30:19;;;;;;;31.57;28.67;;;;;;;;;;5075621;28;20459;-92
2021/10/29 02:32:46;;;;;;;30.20;27.50;;;;;;;;;;5075499;28;20408;-92
2021/10/29 02:35:13;;;;;;;32.40;29.40;;;;;;;;;;5075500;28;20411;-91
2021/10/29 02:37:41;;;;;;;32.43;29.53;;;;;;;;;;5075583;28;20408;-92
2021/10/29 02:40:09;;;;;;;30.27;27.67;;;;;;;;;;5075497;28;21001;-92
2021/10/29 02:42:36;;;;;;;31.33;28.77;;;;;;;;;;5075293;28;20420;-92
2021/10/29 02:45:03;;;;;;;29.60;26.90;;;;;;;;;;5075373;28;20439;-92
2021/10/29 02:47:32;;;;;;;28.97;26.53;;;;;;;;;;5075363;28;20420;-92
2021/10/29 02:49:59;;;;;;;31.97;29.03;;;;;;;;;;5075383;28;20778;-92
2021/10/29 02:52:27;;;;;;;31.50;28.57;;;;;;;;;;5074829;28;20499;-90
2021/10/29 02:54:54;;;;;;;30.63;27.83;;;;;;;;;;5074886;28;20430;-92
2021/10/29 02:57:22;;;;;;;33.17;30.03;;;;;;;;;;5073835;28;20764;-91
2021/10/29 02:59:49;;;;;;;31.57;28.77;;;;;;;;;;5074839;28;20477;-92
2021/10/29 03:02:17;;;;;;;29.67;27.07;;;;;;;;;;5074638;28;20411;-91
2021/10/29 03:04:46;;;;;;;30.23;27.87;;;;;;;;;;5074710;28;20436;-91
2021/10/29 03:07:13;;;;;;;30.03;27.50;;;;;;;;;;5074770;28;20403;-92
2021/10/29 03:09:41;;;;;;;29.53;26.83;;;;;;;;;;5074715;28;20782;-92
2021/10/29 03:12:08;;;;;;;31.30;28.40;;;;;;;;;;5074586;28;20449;-92
2021/10/29 03:14:36;;;;;;;30.20;27.43;;;;;;;;;;5073504;28;20959;-91
2021/10/29 03:17:04;;;;;;;30.30;27.70;;;;;;;;;;5073374;28;20865;-91
2021/10/29 03:19:31;;;;;;;30.48;27.77;;;;;;;;;;5074530;28;20529;-92
2021/10/29 03:22:00;;;;;;;29.30;26.83;;;;;;;;;;5074424;28;20198;-91
2021/10/29 03:24:27;;;;;;;31.23;28.50;;;;;;;;;;5074513;28;20804;-91
2021/10/29 03:26:55;;;;;;;30.23;27.47;;;;;;;;;;5074526;28;20868;-92
2021/10/29 03:29:22;;;;;;;30.23;27.53;;;;;;;;;;5074376;28;20450;-90
2021/10/29 03:31:50;;;;;;;31.17;28.47;;;;;;;;;;5074516;28;20875;-92
2021/10/29 03:34:17;;;;;;;30.23;27.52;;;;;;;;;;5074495;28;20515;-92
2021/10/29 03:36:45;;;;;;;29.57;27.07;;;;;;;;;;5074602;28;20184;-91
2021/10/29 03:39:17;;;;;;;31.13;28.00;;;;;;;;;;5074376;28;20411;-91
2021/10/29 03:41:50;;;;;;;31.40;28.87;;;;;;;;;;5074041;28;20281;-91
2021/10/29 03:44:26;;;;;;;28.83;26.37;;;;;;;;;;5074335;28;20448;-92
2021/10/29 03:46:56;;;;;;;27.73;25.47;;;;;;;;;;5072573;28;20774;-91
2021/10/29 03:49:28;;;;;;;29.05;26.65;;;;;;;;;;5073353;28;20436;-92
2021/10/29 03:51:59;;;;;;;29.73;27.20;;;;;;;;;;5073778;28;20577;-93
2021/10/29 03:54:30;;;;;;;28.42;25.95;;;;;;;;;;5074288;28;20419;-91
2021/10/29 03:57:10;;;;;;;29.00;26.53;;;;;;;;;;5072819;28;20209;-91
2021/10/29 03:59:38;;;;;;;29.33;26.83;;;;;;;;;;5074148;28;20447;-91
2021/10/29 04:02:07;;;;;;;29.00;26.43;;;;;;;;;;5074121;28;20449;-91
2021/10/29 04:04:35;;;;;;;29.07;26.70;;;;;;;;;;5072855;28;20938;-91
2021/10/29 04:07:02;;;;;;;29.53;26.50;;;;;;;;;;5074023;28;20447;-91
2021/10/29 04:09:31;;;;;;;27.83;25.63;;;;;;;;;;5073825;28;20452;-91
2021/10/29 04:11:58;;;;;;;30.50;27.97;;;;;;;;;;5073709;28;20419;-91
2021/10/29 04:14:28;;;;;;;28.60;26.30;;;;;;;;;;5074080;28;20412;-91
2021/10/29 04:16:55;;;;;;;30.90;28.27;;;;;;;;;;5073638;28;20484;-92
2021/10/29 04:19:23;;;;;;;29.90;27.40;;;;;;;;;;5073646;28;20412;-91
2021/10/29 04:21:50;;;;;;;28.00;25.70;;;;;;;;;;5073583;28;20440;-90
2021/10/29 04:24:18;;;;;;;28.33;26.03;;;;;;;;;;5073851;28;20433;-90
2021/10/29 04:26:48;;;;;;;28.17;25.85;;;;;;;;;;5073627;28;20480;-91
2021/10/29 04:29:16;;;;;;;28.70;26.40;;;;;;;;;;5073601;28;20297;-91
2021/10/29 04:31:49;;;;;;;28.60;26.30;;;;;;;;;;5073838;28;20442;-90
2021/10/29 04:34:17;;;;;;;27.50;25.40;;;;;;;;;;5072493;28;20666;-90
2021/10/29 04:36:44;;;;;;;28.27;26.10;;;;;;;;;;5073575;28;20455;-92
2021/10/29 04:39:13;;;;;;;28.00;25.73;;;;;;;;;;5073974;28;20430;-91
2021/10/29 04:41:41;;;;;;;28.95;26.60;;;;;;;;;;5073462;28;20276;-90
2021/10/29 04:44:10;;;;;;;29.37;26.97;;;;;;;;;;5072795;28;20186;-92
2021/10/29 04:46:37;;;;;;;26.38;24.38;;;;;;;;;;5073727;28;20419;-90
2021/10/29 04:49:04;;;;;;;29.35;26.95;;;;;;;;;;5073778;28;20274;-90
2021/10/29 04:51:33;;;;;;;27.85;25.73;;;;;;;;;;5073894;28;20546;-91
2021/10/29 04:54:00;;;;;;;28.67;26.20;;;;;;;;;;5073151;28;20195;-91
2021/10/29 04:56:28;;;;;;;27.37;25.27;;;;;;;;;;5072878;28;20422;-90
2021/10/29 04:58:55;;;;;;;29.00;26.50;;;;;;;;;;5074479;28;20412;-91
2021/10/29 05:01:25;;;;;;;27.42;25.40;;;;;;;;;;5076705;28;20468;-91
2021/10/29 05:03:52;;;;;;;28.27;26.27;;;;;;;;;;5077058;28;20201;-90
2021/10/29 05:06:20;;;;;;;28.38;26.13;;;;;;;;;;5077031;28;20442;-91
2021/10/29 05:08:47;;;;;;;27.42;25.23;;;;;;;;;;5077274;28;20198;-92
2021/10/29 05:11:14;;;;;;;27.60;25.60;;;;;;;;;;5076929;28;20197;-91
2021/10/29 05:13:42;;;;;;;25.35;23.45;;;;;;;;;;5076908;28;20420;-91
2021/10/29 05:16:09;;;;;;;27.58;25.60;;;;;;;;;;5076910;28;20237;-92
2021/10/29 05:18:38;;;;;;;28.67;26.42;;;;;;;;;;5076780;28;20636;-91
2021/10/29 05:21:05;;;;;;;27.13;24.83;;;;;;;;;;5076787;28;20233;-91
2021/10/29 05:23:33;;;;;;;25.77;23.97;;;;;;;;;;5077028;28;20445;-92
2021/10/29 05:26:00;;;;;;;26.20;24.17;;;;;;;;;;5077066;28;20430;-91
2021/10/29 05:28:27;;;;;;;28.13;26.03;;;;;;;;;;5075364;28;20932;-90
2021/10/29 05:30:55;;;;;;;26.70;24.43;;;;;;;;;;5076708;28;20861;-91
2021/10/29 05:33:22;;;;;;;28.63;25.60;;;;;;;;;;5076471;28;20417;-91
2021/10/29 05:35:51;;;;;;;26.43;24.10;;;;;;;;;;5076337;28;20411;-90
2021/10/29 05:38:19;;;;;;;27.63;25.43;;;;;;;;;;5076302;28;20453;-90
2021/10/29 05:40:46;;;;;;;27.43;25.33;;;;;;;;;;5076072;28;21054;-91
2021/10/29 05:43:13;;;;;;;26.20;24.20;;;;;;;;;;5076180;28;20480;-91
2021/10/29 05:45:41;;;;;;;26.83;24.77;;;;;;;;;;5076451;28;20937;-91
2021/10/29 05:48:08;;;;;;;26.70;24.60;;;;;;;;;;5075578;28;20488;-90
2021/10/29 05:50:37;;;;;;;26.30;24.20;;;;;;;;;;5075430;28;20598;-91
2021/10/29 05:53:08;;;;;;;26.67;24.67;;;;;;;;;;5076467;28;20527;-91
2021/10/29 05:55:35;;;;;;;28.25;25.88;;;;;;;;;;5076433;28;20289;-91
2021/10/29 05:58:03;;;;;;;29.80;27.38;;;;;;;;;;5076084;28;20201;-90
2021/10/29 06:00:32;;;;;;;28.37;26.00;;;;;;;;;;5076292;28;20215;-90
2021/10/29 06:03:04;;;;;;;29.37;26.87;;;;;;;;;;5076186;28;20532;-90
2021/10/29 06:05:32;;;;;;;27.23;25.13;;;;;;;;;;5075859;28;20423;-91
2021/10/29 06:07:59;;;;;;;28.27;25.97;;;;;;;;;;5075109;28;20454;-90
2021/10/29 06:10:28;;;;;;;27.30;25.20;;;;;;;;;;5074411;28;20999;-90
2021/10/29 06:12:55;;;;;;;27.87;25.57;;;;;;;;;;5076089;28;20448;-91
2021/10/29 06:15:23;;;;;;;27.83;25.63;;;;;;;;;;5075965;28;20421;-94
2021/10/29 06:17:51;;;;;;;28.50;26.30;;;;;;;;;;5075782;28;20455;-91
2021/10/29 06:20:20;;;;;;;27.37;24.80;;;;;;;;;;5075420;28;20226;-90
2021/10/29 06:22:50;;;;;;;27.27;24.77;;;;;;;;;;5075894;28;20472;-91
2021/10/29 06:25:19;;;;;;;27.30;25.20;;;;;;;;;;5075600;28;20468;-85
2021/10/29 06:30:36;;;;;;;27.00;24.43;;;;;;;;;;5075330;28;20473;-87
2021/10/29 06:33:04;;;;;;;27.70;25.40;;;;;;;;;;5075468;28;20528;-87
2021/10/29 06:35:31;;;;;;;29.00;26.50;;;;;;;;;;5075354;28;20415;-87
2021/10/29 06:37:59;;;;;;;29.58;27.17;;;;;;;;;;5075000;28;20447;-89
2021/10/29 06:40:28;;;;;;;29.80;27.27;;;;;;;;;;5075575;28;20249;-86
2021/10/29 06:42:58;;;;;;;29.50;27.17;;;;;;;;;;5073612;28;20489;-86
2021/10/29 06:45:44;;;;;;;29.97;27.27;;;;;;;;;;5075299;28;20427;-86
2021/10/29 06:48:20;;;;;;;31.00;28.43;;;;;;;;;;5073616;28;20480;-86
2021/10/29 06:59:27;;;;;;;32.40;29.50;;;;;;;;;;5013717;28;20455;-89
2021/10/29 07:02:00;;;;;;;32.20;29.50;;;;;;;;;;5013061;28;20493;-89
2021/10/29 07:04:57;;;;;;;34.43;31.63;;;;;;;;;;5013476;28;20521;-90
2021/10/29 07:40:40;;;;;;;36.97;33.63;;;;;;;;;;5012631;28;20473;-90
2021/10/29 07:43:10;;;;;;;32.47;29.77;;;;;;;;;;5012553;28;20411;-87
2021/10/29 07:45:38;;;;;;;33.27;30.17;;;;;;;;;;4997825;28;20494;-91
2021/10/29 07:48:07;;;;;;;35.53;32.27;;;;;;;;;;5013133;28;20495;-87
2021/10/29 07:50:35;;;;;;;34.30;31.10;;;;;;;;;;5013287;28;20431;-89
2021/10/29 07:53:03;;;;;;;35.17;31.93;;;;;;;;;;4996999;28;20831;-90
2021/10/29 07:55:31;;;;;;;33.50;30.30;;;;;;;;;;4996571;28;20437;-87
2021/10/29 07:58:02;;;;;;;37.00;33.30;;;;;;;;;;5012333;28;20973;-89
2021/10/29 08:00:31;;;;;;;33.13;29.80;;;;;;;;;;5012605;28;20434;-89
2021/10/29 08:03:02;;;;;;;34.03;30.83;;;;;;;;;;5012513;28;20651;-89
2021/10/29 08:05:31;;;;;;;33.13;29.90;;;;;;;;;;5012836;28;20568;-89
2021/10/29 08:07:58;;;;;;;36.90;33.50;;;;;;;;;;5012121;28;20551;-88
2021/10/29 08:10:26;;;;;;;31.93;28.90;;;;;;;;;;5012087;28;20907;-89
2021/10/29 08:12:53;;;;;;;36.17;32.70;;;;;;;;;;5024664;28;20434;-89
2021/10/29 08:15:21;;;;;;;36.30;32.73;;;;;;;;;;5073297;28;20424;-89
2021/10/29 08:17:48;;;;;;;35.73;32.33;;;;;;;;;;5073508;28;20476;-88
2021/10/29 08:20:16;;;;;;;35.13;31.80;;;;;;;;;;5072561;28;20442;-89
2021/10/29 08:22:46;;;;;;;30.17;27.47;;;;;;;;;;5073729;28;20456;-89
2021/10/29 08:25:14;;;;;;;35.33;32.03;;;;;;;;;;5073680;28;20452;-89
2021/10/29 08:27:42;;;;;;;28.10;25.50;;;;;;;;;;5073807;28;20419;-89
2021/10/29 08:30:10;;;;;;;29.43;26.87;;;;;;;;;;5072622;28;20524;-88
2021/10/29 08:32:38;;;;;;;32.77;29.93;;;;;;;;;;5074692;28;20433;-88
2021/10/29 08:35:07;;;;;;;32.67;29.80;;;;;;;;;;5077952;28;20526;-89
2021/10/29 08:37:35;;;;;;;33.40;30.40;;;;;;;;;;5077575;28;20909;-88
2021/10/29 08:40:05;;;;;;;29.37;27.03;;;;;;;;;;5078009;28;20527;-89
2021/10/29 08:42:33;;;;;;;33.60;30.20;;;;;;;;;;5077438;28;20554;-89
2021/10/29 08:45:00;;;;;;;31.20;28.37;;;;;;;;;;5077612;28;20443;-88
2021/10/29 08:47:27;;;;;;;28.00;25.70;;;;;;;;;;5077529;28;20409;-90
2021/10/29 08:49:55;;;;;;;31.47;28.93;;;;;;;;;;5077703;28;20407;-90
2021/10/29 08:52:24;;;;;;;31.33;28.80;;;;;;;;;;5076475;28;20503;-90
2021/10/29 08:54:54;;;;;;;32.23;29.53;;;;;;;;;;5077495;28;20416;-90
2021/10/29 08:57:23;;;;;;;31.17;28.73;;;;;;;;;;5077516;28;20413;-90
2021/10/29 08:59:53;;;;;;;25.60;23.50;;;;;;;;;;5077361;28;20854;-89
2021/10/29 09:02:23;;;;;;;29.87;27.37;;;;;;;;;;5075918;28;20485;-90
2021/10/29 09:04:53;;;;;;;31.17;28.63;;;;;;;;;;5077553;28;20423;-89
2021/10/29 09:32:22;;;;;;;27.10;25.10;;;;;;;;;;4995702;28;20479;-90
2021/10/29 09:34:59;;;;;;;27.03;24.93;;;;;;;;;;4995368;28;20961;-90
2021/10/29 09:37:34;;;;;;;27.87;25.57;;;;;;;;;;4995333;28;20457;-90
2021/10/29 09:40:02;;;;;;;27.47;25.37;;;;;;;;;;4995686;28;20475;-89
2021/10/29 09:42:35;;;;;;;26.17;24.20;;;;;;;;;;4995055;28;20515;-89
2021/10/29 09:45:12;;;;;;;23.60;21.90;;;;;;;;;;4994500;28;20453;-90
2021/10/29 09:47:40;;;;;;;27.60;25.40;;;;;;;;;;4997500;28;20446;-90
2021/10/29 09:50:12;;;;;;;26.97;25.10;;;;;;;;;;5054781;28;20757;-90
2021/10/29 09:53:01;;;;;;;28.43;26.23;;;;;;;;;;5055607;28;20439;-90
2021/10/29 09:55:48;;;;;;;27.37;25.27;;;;;;;;;;5054442;28;20453;-90
2021/10/29 09:58:16;;;;;;;26.30;24.20;;;;;;;;;;5054640;28;20509;-91
2021/10/29 10:00:45;;;;;;;28.43;26.13;;;;;;;;;;5054244;28;20810;-91
2021/10/29 10:03:12;;;;;;;28.03;26.10;;;;;;;;;;5063473;28;20489;-90
2021/10/29 10:05:40;;;;;;;27.90;25.53;;;;;;;;;;5075934;28;20472;-90
2021/10/29 10:08:08;;;;;;;26.47;24.47;;;;;;;;;;5076384;28;20456;-90
2021/10/29 10:10:36;;;;;;;25.37;23.50;;;;;;;;;;5076186;28;20420;-90
2021/10/29 10:13:03;;;;;;;27.47;25.33;;;;;;;;;;5076255;28;20830;-91
2021/10/29 10:15:31;;;;;;;26.87;24.80;;;;;;;;;;5074655;28;20449;-90
2021/10/29 10:18:00;;;;;;;25.83;23.87;;;;;;;;;;5075824;28;20483;-90
2021/10/29 10:20:29;;;;;;;26.93;24.73;;;;;;;;;;5076085;28;20846;-89
2021/10/29 10:23:06;;;;;;;28.93;26.77;;;;;;;;;;5077692;28;20487;-96
2021/10/29 10:40:12;;;;;;;25.93;23.73;;;;;;;;;;5076485;28;20863;-96
2021/10/29 10:42:40;;;;;;;51.40;26.30;;;;;;;;;;5075070;28;20581;-96
2021/10/29 10:45:15;;;;;;;26.60;24.77;;;;;;;;;;5075290;28;20449;-96
2021/10/29 10:47:43;;;;;;;25.13;23.10;;;;;;;;;;5075037;28;20444;-96
2021/10/29 10:50:17;;;;;;;26.87;25.07;;;;;;;;;;5075461;28;20552;-90
2021/10/29 10:53:05;;;;;;;25.70;23.90;;;;;;;;;;5075377;28;20437;-96
2021/10/29 10:55:35;;;;;;;23.70;22.03;;;;;;;;;;5075206;28;20446;-96
2021/10/29 10:58:15;;;;;;;26.17;24.37;;;;;;;;;;5073439;28;20476;-92
2021/10/29 11:00:54;;;;;;;22.40;21.00;;;;;;;;;;5075283;28;20428;-92
2021/10/29 11:03:41;;;;;;;23.63;22.03;;;;;;;;;;5074029;28;20574;-91
2021/10/29 11:06:38;;;;;;;23.83;22.13;;;;;;;;;;5075246;28;20890;-91
2021/10/29 11:11:56;;;;;;;24.80;23.00;;;;;;;;;;5075130;28;20465;-90
2021/10/29 11:14:33;;;;;;;25.17;23.47;;;;;;;;;;5074996;28;20408;-89
2021/10/29 11:17:01;;;;;;;27.03;25.13;;;;;;;;;;5074432;28;20455;-88
2021/10/29 11:19:49;;;;;;;26.37;24.57;;;;;;;;;;5107349;28;20431;-91
2021/10/29 11:22:18;;;;;;;26.23;24.47;;;;;;;;;;5073789;28;20447;-91
2021/10/29 11:24:47;;;;;;;25.20;23.20;;;;;;;;;;5074555;28;20453;-90
2021/10/29 11:27:16;;;;;;;26.30;24.50;;;;;;;;;;5075119;28;20840;-92
2021/10/29 11:29:48;;;;;;;25.07;23.37;;;;;;;;;;5075263;28;20453;-89
2021/10/29 11:32:17;;;;;;;25.47;23.77;;;;;;;;;;5075164;28;20891;-90
2021/10/29 11:34:47;;;;;;;27.30;25.20;;;;;;;;;;5074701;28;20408;-89
2021/10/29 11:37:15;;;;;;;25.70;23.77;;;;;;;;;;5074642;28;20416;-89
2021/10/29 11:39:45;;;;;;;25.37;23.47;;;;;;;;;;5074570;28;20417;-89
2021/10/29 11:42:12;;;;;;;25.77;24.00;;;;;;;;;;5074203;28;20478;-87
2021/10/29 11:44:40;;;;;;;26.60;24.70;;;;;;;;;;5074565;28;20428;-87
2021/10/29 11:47:07;;;;;;;27.10;25.20;;;;;;;;;;5074195;28;20405;-87
2021/10/29 11:49:35;;;;;;;24.60;22.80;;;;;;;;;;5074053;28;20431;-87
2021/10/29 11:52:04;;;;;;;25.90;23.93;;;;;;;;;;5074677;28;20441;-88
2021/10/29 11:54:34;;;;;;;25.83;23.93;;;;;;;;;;5074282;28;20432;-87
2021/10/29 11:57:19;;;;;;;26.00;24.20;;;;;;;;;;5074366;28;20416;-86
2021/10/29 12:00:08;;;;;;;24.53;23.03;;;;;;;;;;5073923;28;20972;-87
2021/10/29 12:08:11;;;;;;;26.80;25.00;;;;;;;;;;5073614;28;20415;-89
2021/10/29 12:10:41;;;;;;;24.93;23.20;;;;;;;;;;5074177;28;20455;-89
2021/10/29 12:13:11;;;;;;;26.27;24.53;;;;;;;;;;5073726;28;20413;-89
2021/10/29 12:15:38;;;;;;;26.70;25.00;;;;;;;;;;5073974;28;20463;-89
2021/10/29 12:18:08;;;;;;;22.80;21.40;;;;;;;;;;5073612;28;20831;-90
2021/10/29 12:20:39;;;;;;;26.37;24.73;;;;;;;;;;5074286;28;20466;-89
2021/10/29 12:23:09;;;;;;;24.63;22.83;;;;;;;;;;5073770;28;20498;-90
2021/10/29 12:25:42;;;;;;;25.10;23.30;;;;;;;;;;5074136;28;20439;-91
2021/10/29 12:28:14;;;;;;;26.07;24.30;;;;;;;;;;5073998;28;20804;-90
2021/10/29 12:30:46;;;;;;;24.87;23.27;;;;;;;;;;5074080;28;20408;-89
2021/10/29 12:33:39;;;;;;;26.00;24.17;;;;;;;;;;5073966;28;21065;-89
2021/10/29 12:53:15;;;;;;;28.10;26.00;;;;;;;;;;5012017;28;20799;-88
2021/10/29 13:01:34;;;;;;;26.10;24.33;;;;;;;;;;4972945;28;20441;-89
2021/10/29 13:04:02;;;;;;;27.10;25.10;;;;;;;;;;4972706;28;20464;-89
2021/10/29 13:06:33;;;;;;;27.57;25.47;;;;;;;;;;4972688;28;20504;-89
2021/10/29 13:09:02;;;;;;;25.30;23.60;;;;;;;;;;4972829;28;20497;-89
2021/10/29 13:11:37;;;;;;;24.40;22.80;;;;;;;;;;4972906;28;20490;-89
2021/10/29 13:14:06;;;;;;;27.27;25.37;;;;;;;;;;4973302;28;20905;-90
2021/10/29 13:16:36;;;;;;;27.47;25.57;;;;;;;;;;4957105;28;20853;-91
2021/10/29 13:19:14;;;;;;;26.10;24.30;;;;;;;;;;4972482;28;20465;-91
2021/10/29 13:52:24;;;;;;;25.73;23.93;;;;;;;;;;5015197;28;20425;-91
2021/10/29 13:54:59;;;;;;;26.17;24.37;;;;;;;;;;5015025;28;20422;-91
2021/10/29 13:57:56;;;;;;;27.43;25.00;;;;;;;;;;5014646;28;20417;-91
2021/10/29 14:28:42;;;;;;;27.77;25.90;;;;;;;;;;4975106;28;20812;-91
2021/10/29 14:31:16;;;;;;;27.43;25.70;;;;;;;;;;4974964;28;20443;-91
2021/10/29 14:33:49;;;;;;;25.27;23.57;;;;;;;;;;4986061;28;20449;-90
2021/10/29 14:36:19;;;;;;;26.10;24.30;;;;;;;;;;5014392;28;20447;-92
2021/10/29 14:38:57;;;;;;;25.97;24.03;;;;;;;;;;5014175;28;20473;-92
2021/10/29 14:41:32;;;;;;;25.60;23.90;;;;;;;;;;5014282;28;20464;-92
2021/10/29 14:44:03;;;;;;;25.90;24.10;;;;;;;;;;5014028;28;20921;-91
2021/10/29 14:46:40;;;;;;;27.27;25.27;;;;;;;;;;5013807;28;20510;-91
2021/10/29 14:49:20;;;;;;;28.67;26.57;;;;;;;;;;5014234;28;20456;-90
2021/10/29 15:24:50;;;;;;;26.27;24.37;;;;;;;;;;5074943;28;20483;-90
2021/10/29 15:27:34;;;;;;;27.27;25.13;;;;;;;;;;5074634;28;20431;-90
2021/10/29 15:30:05;;;;;;;25.73;24.00;;;;;;;;;;5074785;28;20443;-91
2021/10/29 15:44:05;;;;;;;28.43;26.43;;;;;;;;;;5012415;28;20523;-91
2021/10/29 15:46:38;;;;;;;26.23;24.43;;;;;;;;;;5012650;28;20482;-92
2021/10/29 15:49:08;;;;;;;27.33;25.33;;;;;;;;;;5012330;28;20958;-92
2021/10/29 15:51:37;;;;;;;27.60;25.50;;;;;;;;;;5012238;28;20431;-91
2021/10/29 15:54:08;;;;;;;27.73;25.83;;;;;;;;;;5012628;28;20443;-92
2021/10/29 15:56:38;;;;;;;27.30;25.33;;;;;;;;;;4995621;28;21032;-91
2021/10/29 16:01:53;;;;;;;28.50;26.50;;;;;;;;;;5012746;28;20415;-92
2021/10/29 16:18:08;;;;;;;27.73;25.93;;;;;;;;;;5051054;28;20467;-91
2021/10/29 16:20:36;;;;;;;28.57;26.50;;;;;;;;;;5074463;28;20435;-91
2021/10/29 16:23:03;;;;;;;27.77;25.87;;;;;;;;;;5074057;28;20514;-92
2021/10/29 16:25:33;;;;;;;28.97;26.67;;;;;;;;;;5073995;28;20470;-92
2021/10/29 16:28:02;;;;;;;29.53;27.33;;;;;;;;;;5073696;28;20466;-91
2021/10/29 16:30:32;;;;;;;28.67;26.57;;;;;;;;;;5073956;28;20438;-91
2021/10/29 16:35:44;;;;;;;31.60;29.10;;;;;;;;;;5073813;28;20495;-91
2021/10/29 16:38:12;;;;;;;29.23;27.03;;;;;;;;;;5074481;28;20405;-95
2021/10/29 16:40:40;;;;;;;29.70;27.37;;;;;;;;;;5074633;28;20456;-93
2021/10/29 16:43:08;;;;;;;30.90;28.23;;;;;;;;;;5074243;28;21043;-87
2021/10/29 16:45:41;;;;;;;29.93;27.70;;;;;;;;;;5073678;28;20432;-93
2021/10/29 16:48:08;;;;;;;29.43;27.07;;;;;;;;;;5073627;28;20416;-92
2021/10/29 16:50:36;;;;;;;29.90;27.70;;;;;;;;;;5073787;28;20421;-91
2021/10/29 16:53:03;;;;;;;29.53;27.23;;;;;;;;;;5073842;28;20449;-89
2021/10/29 16:55:30;;;;;;;30.00;27.60;;;;;;;;;;5077474;28;20770;-92
2021/10/29 16:57:58;;;;;;;30.10;27.90;;;;;;;;;;5077343;28;20951;-89
2021/10/29 17:00:26;;;;;;;27.87;25.97;;;;;;;;;;5077681;28;20428;-91
2021/10/29 17:02:54;;;;;;;27.90;25.90;;;;;;;;;;5077317;28;20451;-92
2021/10/29 17:05:22;;;;;;;28.70;26.60;;;;;;;;;;5077666;28;20444;-91
2021/10/29 17:07:49;;;;;;;28.63;26.37;;;;;;;;;;5077437;28;20461;-92
2021/10/29 17:10:19;;;;;;;30.03;27.73;;;;;;;;;;5077236;28;20432;-92
2021/10/29 17:12:46;;;;;;;32.93;30.10;;;;;;;;;;5077458;28;20417;-92
2021/10/29 17:15:14;;;;;;;30.47;28.07;;;;;;;;;;5077824;28;20437;-89
2021/10/29 17:17:42;;;;;;;32.07;29.77;;;;;;;;;;5076355;28;20447;-91
2021/10/29 17:20:13;;;;;;;30.17;28.00;;;;;;;;;;5077406;28;20437;-91
2021/10/29 17:22:41;;;;;;;30.80;28.40;;;;;;;;;;5077685;28;20412;-91
2021/10/29 17:25:08;;;;;;;30.33;28.03;;;;;;;;;;5077963;28;20428;-89
2021/10/29 17:27:36;;;;;;;31.10;28.60;;;;;;;;;;5077399;28;20434;-90
2021/10/29 17:30:04;;;;;;;31.93;29.23;;;;;;;;;;5077034;28;20416;-89
2021/10/29 17:32:31;;;;;;;31.07;28.67;;;;;;;;;;5077091;28;20420;-92
2021/10/29 17:35:00;;;;;;;31.03;28.63;;;;;;;;;;5077115;28;20438;-93
2021/10/29 17:37:31;;;;;;;30.40;28.00;;;;;;;;;;5077117;28;20420;-93
2021/10/29 17:39:59;;;;;;;29.60;27.30;;;;;;;;;;5076626;28;20896;-91
2021/10/29 17:42:28;;;;;;;30.77;28.17;;;;;;;;;;5108921;28;20443;-90
2021/10/29 17:44:56;;;;;;;31.53;29.10;;;;;;;;;;5076614;28;20569;-90
2021/10/29 17:47:26;;;;;;;30.40;28.10;;;;;;;;;;5076534;28;20416;-89
2021/10/29 17:49:54;;;;;;;32.20;29.60;;;;;;;;;;5076598;28;20425;-90
2021/10/29 17:52:25;;;;;;;32.07;29.80;;;;;;;;;;5076356;28;20416;-90
2021/10/29 17:54:57;;;;;;;31.27;28.97;;;;;;;;;;5075105;28;20449;-90
2021/10/29 17:57:25;;;;;;;31.60;29.30;;;;;;;;;;5076482;28;20442;-91
2021/10/29 17:59:52;;;;;;;31.50;29.20;;;;;;;;;;5076393;28;20428;-89
2021/10/29 18:02:22;;;;;;;33.27;30.67;;;;;;;;;;5077886;28;20457;-89
2021/10/29 18:04:50;;;;;;;28.70;26.60;;;;;;;;;;5076330;28;20480;-89
2021/10/29 18:07:19;;;;;;;30.07;27.90;;;;;;;;;;5076202;28;20503;-89
2021/10/29 18:09:47;;;;;;;30.00;27.90;;;;;;;;;;5077971;28;20559;-89
2021/10/29 18:12:15;;;;;;;31.17;28.40;;;;;;;;;;5076348;28;20453;-89
2021/10/29 18:14:44;;;;;;;31.90;29.30;;;;;;;;;;5076908;28;20780;-89
2021/10/29 18:17:13;;;;;;;31.60;28.90;;;;;;;;;;5072507;28;20491;-88
2021/10/29 18:19:41;;;;;;;33.00;30.40;;;;;;;;;;5067702;28;20469;-89
2021/10/29 18:22:09;;;;;;;34.90;32.17;;;;;;;;;;5068588;28;20428;-89
2021/10/29 18:24:36;;;;;;;34.53;31.73;;;;;;;;;;5065770;28;20465;-90
2021/10/29 18:27:04;;;;;;;34.13;31.47;;;;;;;;;;5068506;28;20434;-90
2021/10/29 18:29:33;;;;;;;31.53;29.13;;;;;;;;;;5064645;28;20522;-89